Vremea mâine în Simeria - Romania

Vrei sa afli care e starea vremii acum in Hunedoara - Romania? Dorim sa iti furnizam starea vremii pentru Hunedoara - Romania. Starea vremii Hunedoara - Romania pentru astazi.

Vremea mâine în Simeria

Temperatura minimă:
8.8 °C

Temperatura maximă:
24.4 °C

Mâine va fi: Patchy rain nearby
Precipitații: 85 %
Umiditate: 64%
Viteza maximă vânt mâine:
12.2 km/h

Evoluția vremii in Simeria pe ore mâine

Ora: 03:00
Temperatura: °C
Sansa de precipitatii: %
Ora Descriere Temp Se simte Precipitatii Umiditate Vant
00:00Senin11.6°11.7°0%72%S 1.8 KM/H
01:00Senin11°11°0%73%S 2.5 KM/H
02:00Patchy rain nearby10.5°10.5°100%77%S 2.2 KM/H
03:00Patchy rain nearby9.8°9.8°100%81%SSE 2.5 KM/H
04:00Senin9.5°9.5°0%81%S 1.4 KM/H
05:00Senin9.1°9.1°0%82%W 1.8 KM/H
06:00Senin8.8°8.8°0%83%WSW 0.7 KM/H
07:00Senin9.7°9.7°0%81%SSW 0.7 KM/H
08:00Senin14°14°0%73%WSW 1.1 KM/H
09:00Senin16.8°16.8°0%65%NW 1.1 KM/H
10:00Senin19°19°0%58%NW 1.1 KM/H
11:00Senin21°21°0%50%WNW 2.5 KM/H
12:00Senin22.4°24.3°0%44%NW 3.2 KM/H
13:0023.5°24.5°0%40%NW 4.3 KM/H
14:00Innorat24.1°24.7°0%38%NW 7.2 KM/H
15:00Acoperit de nori24.4°24.9°0%38%NW 9.7 KM/H
16:00Thundery outbreaks in nearby24°24.7°0%39%NW 10.8 KM/H
17:00Thundery outbreaks in nearby22.5°24.4°81%45%WNW 12.2 KM/H
18:00Patchy rain nearby19°19°100%55%W 8.6 KM/H
19:00Burniță ușoară17.5°17.5°100%63%WSW 6.1 KM/H
20:00Thundery outbreaks in nearby15.7°15.7°85%71%SW 6.8 KM/H
21:00Thundery outbreaks in nearby14.2°14.3°70%75%SW 5.8 KM/H
22:0013.4°14°0%77%SSW 3.6 KM/H
23:0012.4°12.9°0%81%S 3.6 KM/H




tutorials